sensor_id;sensor_type;location;lat;lon;timestamp;P1;durP1;ratioP1;P2;durP2;ratioP2
78508;SDS011;67802;50.846;7.958;2023-10-13T11:49:08;14.02;;;3.65;;
78508;SDS011;67802;50.846;7.958;2023-10-13T11:54:09;10.35;;;3.65;;
78508;SDS011;67802;50.846;7.958;2023-10-13T11:56:43;10.82;;;4.40;;
78508;SDS011;67802;50.846;7.958;2023-10-13T11:59:12;13.35;;;4.63;;
78508;SDS011;67802;50.846;7.958;2023-10-13T12:04:28;12.93;;;3.85;;
78508;SDS011;67802;50.846;7.958;2023-10-13T12:07:00;11.15;;;4.28;;
78508;SDS011;67802;50.846;7.958;2023-10-13T12:09:52;9.82;;;4.30;;
78508;SDS011;67802;50.846;7.958;2023-10-13T12:12:21;12.38;;;4.97;;
78508;SDS011;67802;50.846;7.958;2023-10-13T12:14:46;8.38;;;3.65;;
78508;SDS011;67802;50.846;7.958;2023-10-13T12:17:21;9.27;;;4.50;;
78508;SDS011;67802;50.846;7.958;2023-10-13T12:19:56;10.63;;;4.18;;
78508;SDS011;67802;50.846;7.958;2023-10-13T12:22:23;8.77;;;4.05;;
78508;SDS011;67802;50.846;7.958;2023-10-13T12:24:53;8.45;;;3.83;;
78508;SDS011;67802;50.846;7.958;2023-10-13T12:27:20;10.02;;;4.07;;
78508;SDS011;67802;50.846;7.958;2023-10-13T12:29:46;10.57;;;4.75;;
78508;SDS011;67802;50.846;7.958;2023-10-13T12:32:12;9.48;;;4.00;;
78508;SDS011;67802;50.846;7.958;2023-10-13T12:34:39;8.95;;;4.15;;
78508;SDS011;67802;50.846;7.958;2023-10-13T12:37:43;11.30;;;4.18;;
78508;SDS011;67802;50.846;7.958;2023-10-13T12:40:15;11.40;;;4.78;;
78508;SDS011;67802;50.846;7.958;2023-10-13T12:43:03;11.75;;;4.10;;
78508;SDS011;67802;50.846;7.958;2023-10-13T12:45:50;10.32;;;4.32;;
78508;SDS011;67802;50.846;7.958;2023-10-13T12:48:35;10.52;;;4.30;;
78508;SDS011;67802;50.846;7.958;2023-10-13T12:51:20;10.30;;;4.00;;
78508;SDS011;67802;50.846;7.958;2023-10-13T12:53:47;10.23;;;5.07;;
78508;SDS011;67802;50.846;7.958;2023-10-13T12:56:13;9.25;;;3.90;;
78508;SDS011;67802;50.846;7.958;2023-10-13T12:58:39;10.07;;;4.35;;
78508;SDS011;67802;50.846;7.958;2023-10-13T13:01:05;8.13;;;4.15;;
78508;SDS011;67802;50.846;7.958;2023-10-13T13:03:33;11.45;;;4.05;;
78508;SDS011;67802;50.846;7.958;2023-10-13T13:05:59;10.57;;;4.03;;
78508;SDS011;67802;50.846;7.958;2023-10-13T13:08:32;8.73;;;3.95;;
78508;SDS011;67802;50.846;7.958;2023-10-13T13:11:00;9.50;;;3.58;;
78508;SDS011;67802;50.846;7.958;2023-10-13T13:13:26;10.75;;;3.75;;
78508;SDS011;67802;50.846;7.958;2023-10-13T13:15:52;12.05;;;3.90;;
78508;SDS011;67802;50.846;7.958;2023-10-13T13:18:17;8.90;;;4.05;;
78508;SDS011;67802;50.846;7.958;2023-10-13T13:20:44;8.60;;;3.83;;
78508;SDS011;67802;50.846;7.958;2023-10-13T13:23:18;9.98;;;4.13;;
78508;SDS011;67802;50.846;7.958;2023-10-13T13:25:47;9.77;;;3.97;;
78508;SDS011;67802;50.846;7.958;2023-10-13T13:28:13;7.47;;;3.47;;
78508;SDS011;67802;50.846;7.958;2023-10-13T13:30:43;8.65;;;4.00;;
78508;SDS011;67802;50.846;7.958;2023-10-13T13:33:11;11.32;;;3.83;;
78508;SDS011;67802;50.846;7.958;2023-10-13T13:35:37;9.63;;;3.90;;
78508;SDS011;67802;50.846;7.958;2023-10-13T13:38:03;12.02;;;3.67;;
78508;SDS011;67802;50.846;7.958;2023-10-13T13:40:37;8.95;;;3.88;;
78508;SDS011;67802;50.846;7.958;2023-10-13T13:43:03;11.93;;;4.20;;
78508;SDS011;67802;50.846;7.958;2023-10-13T13:45:29;8.50;;;3.95;;
78508;SDS011;67802;50.846;7.958;2023-10-13T13:47:54;9.73;;;4.00;;
78508;SDS011;67802;50.846;7.958;2023-10-13T13:50:20;9.63;;;4.03;;
78508;SDS011;67802;50.846;7.958;2023-10-13T13:52:51;8.63;;;4.10;;
78508;SDS011;67802;50.846;7.958;2023-10-13T13:55:20;12.20;;;4.35;;
78508;SDS011;67802;50.846;7.958;2023-10-13T13:57:46;7.72;;;3.60;;
78508;SDS011;67802;50.846;7.958;2023-10-13T14:00:15;9.90;;;3.97;;
78508;SDS011;67802;50.846;7.958;2023-10-13T14:02:55;9.05;;;4.20;;
78508;SDS011;67802;50.846;7.958;2023-10-13T14:05:20;8.43;;;3.63;;
78508;SDS011;67802;50.846;7.958;2023-10-13T14:07:46;8.35;;;3.80;;
78508;SDS011;67802;50.846;7.958;2023-10-13T14:10:14;11.25;;;4.10;;
78508;SDS011;67802;50.846;7.958;2023-10-13T14:12:56;11.38;;;4.00;;
78508;SDS011;67802;50.846;7.958;2023-10-13T14:15:53;12.57;;;4.10;;
78508;SDS011;67802;50.846;7.958;2023-10-13T14:18:21;14.55;;;3.97;;
78508;SDS011;67802;50.846;7.958;2023-10-13T14:20:55;9.20;;;4.15;;
78508;SDS011;67802;50.846;7.958;2023-10-13T14:23:21;10.00;;;3.75;;
78508;SDS011;67802;50.846;7.958;2023-10-13T14:25:47;11.70;;;4.20;;
78508;SDS011;67802;50.846;7.958;2023-10-13T14:28:12;11.70;;;4.00;;
78508;SDS011;67802;50.846;7.958;2023-10-13T14:30:42;10.82;;;4.00;;
78508;SDS011;67802;50.846;7.958;2023-10-13T14:33:08;10.15;;;4.03;;
78508;SDS011;67802;50.846;7.958;2023-10-13T14:35:35;9.85;;;4.30;;
78508;SDS011;67802;50.846;7.958;2023-10-13T14:38:01;8.73;;;3.83;;
78508;SDS011;67802;50.846;7.958;2023-10-13T14:40:28;9.45;;;3.90;;
78508;SDS011;67802;50.846;7.958;2023-10-13T14:42:54;8.48;;;3.85;;
78508;SDS011;67802;50.846;7.958;2023-10-13T14:45:21;12.10;;;4.05;;
78508;SDS011;67802;50.846;7.958;2023-10-13T14:47:47;9.98;;;4.10;;
78508;SDS011;67802;50.846;7.958;2023-10-13T14:50:12;7.90;;;3.75;;
78508;SDS011;67802;50.846;7.958;2023-10-13T14:52:47;8.45;;;3.63;;
78508;SDS011;67802;50.846;7.958;2023-10-13T14:55:13;8.75;;;4.03;;
78508;SDS011;67802;50.846;7.958;2023-10-13T14:57:46;10.32;;;3.80;;
78508;SDS011;67802;50.846;7.958;2023-10-13T15:00:17;9.63;;;3.53;;
78508;SDS011;67802;50.846;7.958;2023-10-13T15:02:50;8.55;;;3.85;;
78508;SDS011;67802;50.846;7.958;2023-10-13T15:05:19;8.65;;;3.63;;
78508;SDS011;67802;50.846;7.958;2023-10-13T15:07:44;8.77;;;3.58;;
78508;SDS011;67802;50.846;7.958;2023-10-13T15:10:13;8.93;;;3.42;;
78508;SDS011;67802;50.846;7.958;2023-10-13T15:12:40;7.38;;;3.80;;
78508;SDS011;67802;50.846;7.958;2023-10-13T15:15:11;11.00;;;3.80;;
78508;SDS011;67802;50.846;7.958;2023-10-13T15:17:44;9.18;;;3.92;;
78508;SDS011;67802;50.846;7.958;2023-10-13T15:20:13;9.20;;;4.05;;
78508;SDS011;67802;50.846;7.958;2023-10-13T15:22:42;9.57;;;3.70;;
78508;SDS011;67802;50.846;7.958;2023-10-13T15:25:08;8.57;;;3.70;;
78508;SDS011;67802;50.846;7.958;2023-10-13T15:27:41;9.85;;;3.92;;
78508;SDS011;67802;50.846;7.958;2023-10-13T15:30:07;8.93;;;3.70;;
78508;SDS011;67802;50.846;7.958;2023-10-13T15:32:45;13.63;;;3.90;;
78508;SDS011;67802;50.846;7.958;2023-10-13T15:35:11;8.30;;;3.78;;
78508;SDS011;67802;50.846;7.958;2023-10-13T15:37:40;7.32;;;3.00;;
78508;SDS011;67802;50.846;7.958;2023-10-13T15:40:07;8.63;;;3.33;;
78508;SDS011;67802;50.846;7.958;2023-10-13T15:42:40;8.70;;;3.67;;
78508;SDS011;67802;50.846;7.958;2023-10-13T15:45:06;10.95;;;3.70;;
78508;SDS011;67802;50.846;7.958;2023-10-13T15:47:42;9.90;;;3.53;;
78508;SDS011;67802;50.846;7.958;2023-10-13T15:50:14;8.57;;;3.30;;
78508;SDS011;67802;50.846;7.958;2023-10-13T15:52:42;9.50;;;3.97;;
78508;SDS011;67802;50.846;7.958;2023-10-13T15:55:14;8.98;;;3.70;;
78508;SDS011;67802;50.846;7.958;2023-10-13T15:57:42;6.05;;;3.00;;
78508;SDS011;67802;50.846;7.958;2023-10-13T16:00:11;9.15;;;3.47;;
78508;SDS011;67802;50.846;7.958;2023-10-13T16:02:49;8.52;;;3.10;;
78508;SDS011;67802;50.846;7.958;2023-10-13T16:05:16;7.55;;;3.80;;
78508;SDS011;67802;50.846;7.958;2023-10-13T16:07:41;8.52;;;3.47;;
78508;SDS011;67802;50.846;7.958;2023-10-13T16:10:07;6.97;;;3.00;;
78508;SDS011;67802;50.846;7.958;2023-10-13T16:12:36;10.45;;;3.88;;
78508;SDS011;67802;50.846;7.958;2023-10-13T16:15:02;9.02;;;3.15;;
78508;SDS011;67802;50.846;7.958;2023-10-13T16:17:30;7.13;;;3.33;;
78508;SDS011;67802;50.846;7.958;2023-10-13T16:19:56;8.25;;;3.58;;
78508;SDS011;67802;50.846;7.958;2023-10-13T16:22:22;8.50;;;3.40;;
78508;SDS011;67802;50.846;7.958;2023-10-13T16:24:47;9.50;;;3.80;;
78508;SDS011;67802;50.846;7.958;2023-10-13T16:27:12;8.20;;;3.40;;
78508;SDS011;67802;50.846;7.958;2023-10-13T16:29:39;6.43;;;3.20;;
78508;SDS011;67802;50.846;7.958;2023-10-13T16:32:08;7.05;;;3.30;;
78508;SDS011;67802;50.846;7.958;2023-10-13T16:34:34;8.55;;;3.33;;
78508;SDS011;67802;50.846;7.958;2023-10-13T16:36:59;7.57;;;3.05;;
78508;SDS011;67802;50.846;7.958;2023-10-13T16:39:30;7.88;;;3.05;;
78508;SDS011;67802;50.846;7.958;2023-10-13T16:41:55;7.88;;;3.22;;
78508;SDS011;67802;50.846;7.958;2023-10-13T16:44:24;7.10;;;3.13;;
78508;SDS011;67802;50.846;7.958;2023-10-13T16:46:52;6.72;;;3.35;;
78508;SDS011;67802;50.846;7.958;2023-10-13T16:49:25;7.25;;;3.17;;
78508;SDS011;67802;50.846;7.958;2023-10-13T16:51:50;7.22;;;3.15;;
78508;SDS011;67802;50.846;7.958;2023-10-13T16:54:15;7.18;;;3.10;;
78508;SDS011;67802;50.846;7.958;2023-10-13T16:56:40;6.07;;;3.13;;
78508;SDS011;67802;50.846;7.958;2023-10-13T16:59:06;7.60;;;3.25;;
78508;SDS011;67802;50.846;7.958;2023-10-13T17:01:32;6.07;;;3.20;;
78508;SDS011;67802;50.846;7.958;2023-10-13T17:04:01;6.88;;;2.90;;
78508;SDS011;67802;50.846;7.958;2023-10-13T17:06:29;8.70;;;3.15;;
78508;SDS011;67802;50.846;7.958;2023-10-13T17:08:54;9.00;;;3.60;;
78508;SDS011;67802;50.846;7.958;2023-10-13T17:11:20;6.82;;;3.13;;
78508;SDS011;67802;50.846;7.958;2023-10-13T17:13:46;8.80;;;3.38;;
78508;SDS011;67802;50.846;7.958;2023-10-13T17:16:14;8.43;;;2.97;;
78508;SDS011;67802;50.846;7.958;2023-10-13T17:18:41;6.50;;;3.00;;
78508;SDS011;67802;50.846;7.958;2023-10-13T17:21:19;6.72;;;3.05;;
78508;SDS011;67802;50.846;7.958;2023-10-13T17:23:46;6.60;;;3.03;;
78508;SDS011;67802;50.846;7.958;2023-10-13T17:26:15;7.53;;;3.20;;
78508;SDS011;67802;50.846;7.958;2023-10-13T17:28:42;7.35;;;3.10;;
78508;SDS011;67802;50.846;7.958;2023-10-13T17:31:07;7.88;;;2.88;;
78508;SDS011;67802;50.846;7.958;2023-10-13T17:33:33;6.75;;;2.90;;
78508;SDS011;67802;50.846;7.958;2023-10-13T17:36:04;5.78;;;3.15;;
78508;SDS011;67802;50.846;7.958;2023-10-13T17:38:38;7.30;;;3.03;;
78508;SDS011;67802;50.846;7.958;2023-10-13T17:41:04;5.63;;;2.85;;
78508;SDS011;67802;50.846;7.958;2023-10-13T17:43:33;8.07;;;3.13;;
78508;SDS011;67802;50.846;7.958;2023-10-13T17:46:08;7.70;;;3.10;;
78508;SDS011;67802;50.846;7.958;2023-10-13T17:48:35;7.32;;;3.05;;
78508;SDS011;67802;50.846;7.958;2023-10-13T17:51:04;7.45;;;3.05;;
78508;SDS011;67802;50.846;7.958;2023-10-13T17:53:31;6.70;;;3.08;;
78508;SDS011;67802;50.846;7.958;2023-10-13T17:56:09;7.30;;;2.88;;
78508;SDS011;67802;50.846;7.958;2023-10-13T17:58:40;8.45;;;3.30;;
78508;SDS011;67802;50.846;7.958;2023-10-13T18:01:08;8.93;;;3.13;;
78508;SDS011;67802;50.846;7.958;2023-10-13T18:03:34;9.80;;;3.00;;
78508;SDS011;67802;50.846;7.958;2023-10-13T18:06:00;11.30;;;3.45;;
78508;SDS011;67802;50.846;7.958;2023-10-13T18:08:26;11.38;;;3.25;;
78508;SDS011;67802;50.846;7.958;2023-10-13T18:10:57;6.05;;;2.78;;
78508;SDS011;67802;50.846;7.958;2023-10-13T18:13:23;7.18;;;2.90;;
78508;SDS011;67802;50.846;7.958;2023-10-13T18:15:49;7.18;;;3.05;;
78508;SDS011;67802;50.846;7.958;2023-10-13T18:18:14;6.63;;;3.10;;
78508;SDS011;67802;50.846;7.958;2023-10-13T18:20:41;6.55;;;3.13;;
78508;SDS011;67802;50.846;7.958;2023-10-13T18:23:06;7.22;;;3.55;;
78508;SDS011;67802;50.846;7.958;2023-10-13T18:25:36;10.02;;;3.17;;
78508;SDS011;67802;50.846;7.958;2023-10-13T18:28:07;8.15;;;2.97;;
78508;SDS011;67802;50.846;7.958;2023-10-13T18:30:35;8.20;;;3.20;;
78508;SDS011;67802;50.846;7.958;2023-10-13T18:33:01;7.22;;;3.30;;
78508;SDS011;67802;50.846;7.958;2023-10-13T18:35:27;8.27;;;2.83;;
78508;SDS011;67802;50.846;7.958;2023-10-13T18:37:52;8.77;;;2.97;;
78508;SDS011;67802;50.846;7.958;2023-10-13T18:40:18;7.35;;;3.28;;
78508;SDS011;67802;50.846;7.958;2023-10-13T18:42:44;8.48;;;2.92;;
78508;SDS011;67802;50.846;7.958;2023-10-13T18:45:19;6.00;;;3.00;;
78508;SDS011;67802;50.846;7.958;2023-10-13T18:47:47;7.13;;;3.35;;
78508;SDS011;67802;50.846;7.958;2023-10-13T18:50:15;8.80;;;3.00;;
78508;SDS011;67802;50.846;7.958;2023-10-13T18:52:42;6.97;;;3.05;;
78508;SDS011;67802;50.846;7.958;2023-10-13T18:55:08;7.53;;;3.08;;
78508;SDS011;67802;50.846;7.958;2023-10-13T18:57:33;7.32;;;3.03;;
78508;SDS011;67802;50.846;7.958;2023-10-13T18:59:59;8.90;;;2.97;;
78508;SDS011;67802;50.846;7.958;2023-10-13T19:02:24;7.03;;;3.55;;
78508;SDS011;67802;50.846;7.958;2023-10-13T19:04:53;8.27;;;3.10;;
78508;SDS011;67802;50.846;7.958;2023-10-13T19:07:20;8.35;;;3.00;;
78508;SDS011;67802;50.846;7.958;2023-10-13T19:09:46;7.97;;;3.30;;
78508;SDS011;67802;50.846;7.958;2023-10-13T19:12:11;7.97;;;2.97;;
78508;SDS011;67802;50.846;7.958;2023-10-13T19:14:37;6.32;;;2.95;;
78508;SDS011;67802;50.846;7.958;2023-10-13T19:17:03;7.13;;;3.05;;
78508;SDS011;67802;50.846;7.958;2023-10-13T19:19:29;18.23;;;2.90;;
78508;SDS011;67802;50.846;7.958;2023-10-13T19:21:57;9.40;;;3.08;;
78508;SDS011;67802;50.846;7.958;2023-10-13T19:24:23;7.65;;;2.75;;
78508;SDS011;67802;50.846;7.958;2023-10-13T19:26:48;7.03;;;2.85;;
78508;SDS011;67802;50.846;7.958;2023-10-13T19:29:13;9.02;;;3.00;;
78508;SDS011;67802;50.846;7.958;2023-10-13T19:31:43;7.80;;;3.17;;
78508;SDS011;67802;50.846;7.958;2023-10-13T19:34:10;7.10;;;2.63;;
78508;SDS011;67802;50.846;7.958;2023-10-13T19:36:35;6.70;;;3.42;;
78508;SDS011;67802;50.846;7.958;2023-10-13T19:39:02;6.95;;;2.80;;
78508;SDS011;67802;50.846;7.958;2023-10-13T19:41:29;8.00;;;2.90;;
78508;SDS011;67802;50.846;7.958;2023-10-13T19:43:59;6.90;;;3.08;;
78508;SDS011;67802;50.846;7.958;2023-10-13T19:46:27;8.45;;;2.88;;
78508;SDS011;67802;50.846;7.958;2023-10-13T19:48:55;7.72;;;3.53;;
78508;SDS011;67802;50.846;7.958;2023-10-13T19:51:22;7.60;;;3.00;;
78508;SDS011;67802;50.846;7.958;2023-10-13T19:53:51;7.82;;;3.00;;
78508;SDS011;67802;50.846;7.958;2023-10-13T19:56:17;5.93;;;2.72;;
78508;SDS011;67802;50.846;7.958;2023-10-13T19:58:47;5.97;;;2.42;;
78508;SDS011;67802;50.846;7.958;2023-10-13T20:01:17;8.48;;;3.00;;
78508;SDS011;67802;50.846;7.958;2023-10-13T20:03:55;6.05;;;3.03;;
78508;SDS011;67802;50.846;7.958;2023-10-13T20:06:21;7.25;;;2.92;;
78508;SDS011;67802;50.846;7.958;2023-10-13T20:08:48;7.57;;;2.60;;
78508;SDS011;67802;50.846;7.958;2023-10-13T20:11:17;6.40;;;3.00;;
78508;SDS011;67802;50.846;7.958;2023-10-13T20:13:44;7.15;;;3.05;;
78508;SDS011;67802;50.846;7.958;2023-10-13T20:16:11;7.78;;;2.90;;
78508;SDS011;67802;50.846;7.958;2023-10-13T20:18:44;6.32;;;2.65;;
78508;SDS011;67802;50.846;7.958;2023-10-13T20:21:10;7.80;;;2.90;;
78508;SDS011;67802;50.846;7.958;2023-10-13T20:23:35;7.43;;;3.03;;
78508;SDS011;67802;50.846;7.958;2023-10-13T20:26:01;7.07;;;3.15;;
78508;SDS011;67802;50.846;7.958;2023-10-13T20:28:28;5.88;;;2.70;;
78508;SDS011;67802;50.846;7.958;2023-10-13T20:30:53;8.07;;;3.03;;
78508;SDS011;67802;50.846;7.958;2023-10-13T20:33:23;11.25;;;2.90;;
78508;SDS011;67802;50.846;7.958;2023-10-13T20:35:49;6.00;;;2.72;;
78508;SDS011;67802;50.846;7.958;2023-10-13T20:38:18;10.63;;;3.03;;
78508;SDS011;67802;50.846;7.958;2023-10-13T20:40:57;8.82;;;3.15;;
78508;SDS011;67802;50.846;7.958;2023-10-13T20:43:25;6.57;;;2.90;;
78508;SDS011;67802;50.846;7.958;2023-10-13T20:45:50;6.35;;;3.00;;
78508;SDS011;67802;50.846;7.958;2023-10-13T20:48:15;7.53;;;3.15;;
78508;SDS011;67802;50.846;7.958;2023-10-13T20:50:42;10.23;;;3.15;;
78508;SDS011;67802;50.846;7.958;2023-10-13T20:53:07;6.55;;;3.00;;
78508;SDS011;67802;50.846;7.958;2023-10-13T20:55:33;6.15;;;2.70;;
78508;SDS011;67802;50.846;7.958;2023-10-13T20:58:02;7.70;;;2.80;;
78508;SDS011;67802;50.846;7.958;2023-10-13T21:00:28;6.82;;;3.15;;
78508;SDS011;67802;50.846;7.958;2023-10-13T21:02:55;9.00;;;3.22;;
78508;SDS011;67802;50.846;7.958;2023-10-13T21:05:21;6.07;;;2.70;;
78508;SDS011;67802;50.846;7.958;2023-10-13T21:07:47;7.18;;;3.10;;
78508;SDS011;67802;50.846;7.958;2023-10-13T21:10:16;6.47;;;2.78;;
78508;SDS011;67802;50.846;7.958;2023-10-13T21:12:42;6.07;;;2.58;;
78508;SDS011;67802;50.846;7.958;2023-10-13T21:15:11;7.07;;;2.50;;
78508;SDS011;67802;50.846;7.958;2023-10-13T21:17:43;6.55;;;2.90;;
78508;SDS011;67802;50.846;7.958;2023-10-13T21:20:10;6.70;;;2.80;;
78508;SDS011;67802;50.846;7.958;2023-10-13T21:22:49;5.50;;;2.88;;
78508;SDS011;67802;50.846;7.958;2023-10-13T21:25:18;7.65;;;2.53;;
78508;SDS011;67802;50.846;7.958;2023-10-13T21:27:48;7.15;;;2.92;;
78508;SDS011;67802;50.846;7.958;2023-10-13T21:30:16;7.07;;;2.90;;
78508;SDS011;67802;50.846;7.958;2023-10-13T21:32:42;7.68;;;3.08;;
78508;SDS011;67802;50.846;7.958;2023-10-13T21:35:09;6.25;;;2.72;;
78508;SDS011;67802;50.846;7.958;2023-10-13T21:37:34;7.38;;;3.00;;
78508;SDS011;67802;50.846;7.958;2023-10-13T21:40:00;9.23;;;2.75;;
78508;SDS011;67802;50.846;7.958;2023-10-13T21:42:26;7.70;;;2.78;;
78508;SDS011;67802;50.846;7.958;2023-10-13T21:44:51;10.65;;;3.58;;
78508;SDS011;67802;50.846;7.958;2023-10-13T21:47:23;6.53;;;3.13;;
78508;SDS011;67802;50.846;7.958;2023-10-13T21:49:49;8.10;;;2.90;;
78508;SDS011;67802;50.846;7.958;2023-10-13T21:52:14;8.65;;;2.85;;
78508;SDS011;67802;50.846;7.958;2023-10-13T21:54:41;7.40;;;2.72;;
78508;SDS011;67802;50.846;7.958;2023-10-13T21:57:07;6.70;;;3.20;;
78508;SDS011;67802;50.846;7.958;2023-10-13T21:59:33;8.88;;;3.15;;
78508;SDS011;67802;50.846;7.958;2023-10-13T22:01:58;7.40;;;2.97;;
78508;SDS011;67802;50.846;7.958;2023-10-13T22:04:24;7.53;;;2.90;;
78508;SDS011;67802;50.846;7.958;2023-10-13T22:06:55;8.43;;;2.88;;
78508;SDS011;67802;50.846;7.958;2023-10-13T22:09:24;7.93;;;2.97;;
78508;SDS011;67802;50.846;7.958;2023-10-13T22:11:50;8.82;;;3.05;;
78508;SDS011;67802;50.846;7.958;2023-10-13T22:14:15;6.78;;;2.88;;
78508;SDS011;67802;50.846;7.958;2023-10-13T22:16:42;8.18;;;3.05;;
78508;SDS011;67802;50.846;7.958;2023-10-13T22:19:08;7.55;;;2.80;;
78508;SDS011;67802;50.846;7.958;2023-10-13T22:21:33;8.15;;;2.80;;
78508;SDS011;67802;50.846;7.958;2023-10-13T22:23:58;6.60;;;2.83;;
78508;SDS011;67802;50.846;7.958;2023-10-13T22:26:27;6.53;;;2.63;;
78508;SDS011;67802;50.846;7.958;2023-10-13T22:28:54;6.63;;;2.50;;
78508;SDS011;67802;50.846;7.958;2023-10-13T22:31:20;7.05;;;2.78;;
78508;SDS011;67802;50.846;7.958;2023-10-13T22:33:50;5.78;;;2.70;;
78508;SDS011;67802;50.846;7.958;2023-10-13T22:36:16;6.15;;;2.78;;
78508;SDS011;67802;50.846;7.958;2023-10-13T22:38:50;7.78;;;3.10;;
78508;SDS011;67802;50.846;7.958;2023-10-13T22:41:23;8.32;;;3.55;;
78508;SDS011;67802;50.846;7.958;2023-10-13T22:43:49;7.82;;;3.28;;
78508;SDS011;67802;50.846;7.958;2023-10-13T22:46:15;7.30;;;3.58;;
78508;SDS011;67802;50.846;7.958;2023-10-13T22:48:41;7.32;;;2.90;;
78508;SDS011;67802;50.846;7.958;2023-10-13T22:51:07;7.68;;;3.53;;
78508;SDS011;67802;50.846;7.958;2023-10-13T22:53:32;7.10;;;3.03;;
78508;SDS011;67802;50.846;7.958;2023-10-13T22:56:01;6.50;;;3.20;;
78508;SDS011;67802;50.846;7.958;2023-10-13T22:58:27;9.55;;;3.25;;
78508;SDS011;67802;50.846;7.958;2023-10-13T23:00:52;7.68;;;3.30;;
78508;SDS011;67802;50.846;7.958;2023-10-13T23:03:23;7.28;;;3.13;;
78508;SDS011;67802;50.846;7.958;2023-10-13T23:06:00;7.35;;;3.08;;
78508;SDS011;67802;50.846;7.958;2023-10-13T23:08:28;9.13;;;3.20;;
78508;SDS011;67802;50.846;7.958;2023-10-13T23:11:14;8.07;;;3.28;;
78508;SDS011;67802;50.846;7.958;2023-10-13T23:13:43;7.30;;;2.90;;
78508;SDS011;67802;50.846;7.958;2023-10-13T23:16:16;7.97;;;3.35;;
78508;SDS011;67802;50.846;7.958;2023-10-13T23:18:42;8.35;;;3.00;;
78508;SDS011;67802;50.846;7.958;2023-10-13T23:21:10;9.48;;;3.47;;
78508;SDS011;67802;50.846;7.958;2023-10-13T23:23:36;7.28;;;3.17;;
78508;SDS011;67802;50.846;7.958;2023-10-13T23:26:02;7.28;;;2.95;;
78508;SDS011;67802;50.846;7.958;2023-10-13T23:28:28;7.22;;;3.20;;
78508;SDS011;67802;50.846;7.958;2023-10-13T23:30:54;6.55;;;3.10;;
78508;SDS011;67802;50.846;7.958;2023-10-13T23:33:19;8.52;;;3.17;;
78508;SDS011;67802;50.846;7.958;2023-10-13T23:35:46;7.45;;;2.85;;
78508;SDS011;67802;50.846;7.958;2023-10-13T23:38:11;7.22;;;2.90;;
78508;SDS011;67802;50.846;7.958;2023-10-13T23:40:50;7.30;;;2.83;;
78508;SDS011;67802;50.846;7.958;2023-10-13T23:43:16;10.73;;;3.22;;
78508;SDS011;67802;50.846;7.958;2023-10-13T23:45:52;5.68;;;2.65;;
78508;SDS011;67802;50.846;7.958;2023-10-13T23:48:19;5.78;;;2.90;;
78508;SDS011;67802;50.846;7.958;2023-10-13T23:50:49;6.55;;;3.15;;
78508;SDS011;67802;50.846;7.958;2023-10-13T23:53:22;6.97;;;3.05;;
78508;SDS011;67802;50.846;7.958;2023-10-13T23:55:49;6.97;;;2.63;;
78508;SDS011;67802;50.846;7.958;2023-10-13T23:58:14;6.32;;;2.55;;
